createdAt,value
2023-04-08T00:00:42.153Z,7.40
2023-04-08T00:03:19.421Z,9.00
2023-04-08T00:05:47.340Z,7.20
2023-04-08T00:08:15.406Z,8.10
2023-04-08T00:10:43.468Z,9.20
2023-04-08T00:13:11.729Z,6.80
2023-04-08T00:15:39.561Z,5.80
2023-04-08T00:18:08.213Z,5.70
2023-04-08T00:20:36.332Z,5.00
2023-04-08T00:23:04.208Z,4.70
2023-04-08T00:25:32.124Z,5.30
2023-04-08T00:27:59.967Z,5.20
2023-04-08T00:30:28.625Z,5.30
2023-04-08T00:32:56.557Z,5.80
2023-04-08T00:35:24.757Z,5.30
2023-04-08T00:37:52.726Z,7.20
2023-04-08T00:40:20.701Z,5.50
2023-04-08T00:42:48.590Z,5.20
2023-04-08T00:45:16.599Z,6.20
2023-04-08T00:47:44.657Z,6.20
2023-04-08T00:50:12.774Z,6.50
2023-04-08T00:52:40.891Z,5.90
2023-04-08T00:55:08.869Z,7.60
2023-04-08T00:57:36.914Z,8.20
2023-04-08T01:00:06.485Z,8.20
2023-04-08T01:03:07.246Z,6.70
2023-04-08T01:06:07.092Z,6.80
2023-04-08T01:08:38.730Z,7.70
2023-04-08T01:11:10.626Z,8.60
2023-04-08T01:13:40.920Z,7.20
2023-04-08T01:16:13.518Z,7.20
2023-04-08T01:18:43.596Z,8.30
2023-04-08T01:21:13.023Z,9.70
2023-04-08T01:24:12.570Z,8.60
2023-04-08T01:26:40.995Z,8.60
2023-04-08T01:29:09.361Z,8.10
2023-04-08T01:31:39.805Z,8.20
2023-04-08T01:34:08.202Z,8.00
2023-04-08T01:36:38.643Z,8.80
2023-04-08T01:39:07.927Z,9.70
2023-04-08T01:41:37.263Z,9.60
2023-04-08T01:44:05.803Z,10.00
2023-04-08T01:46:34.935Z,8.40
2023-04-08T01:49:05.880Z,9.40
2023-04-08T01:51:39.545Z,8.90
2023-04-08T01:54:07.890Z,10.00
2023-04-08T01:56:39.385Z,10.60
2023-04-08T01:59:11.787Z,12.80
2023-04-08T02:01:40.867Z,10.20
2023-04-08T02:04:08.925Z,10.30
2023-04-08T02:06:38.005Z,9.70
2023-04-08T02:09:05.883Z,11.40
2023-04-08T02:11:33.838Z,10.60
2023-04-08T02:14:01.698Z,11.30
2023-04-08T02:16:44.846Z,12.10
2023-04-08T02:19:23.454Z,12.00
2023-04-08T02:21:57.632Z,15.50
2023-04-08T02:24:28.033Z,12.30
2023-04-08T02:26:57.373Z,14.80
2023-04-08T02:29:28.227Z,15.20
2023-04-08T02:31:56.702Z,12.90
2023-04-08T02:34:25.633Z,18.40
2023-04-08T02:36:53.872Z,14.30
2023-04-08T02:39:21.736Z,20.20
2023-04-08T02:41:51.128Z,14.10
2023-04-08T02:44:18.968Z,16.80
2023-04-08T02:46:46.876Z,17.00
2023-04-08T02:49:14.737Z,21.70
2023-04-08T02:51:42.655Z,30.40
2023-04-08T02:54:10.468Z,24.80
2023-04-08T02:56:38.281Z,40.40
2023-04-08T02:59:06.186Z,26.30
2023-04-08T03:01:34.087Z,24.30
2023-04-08T03:04:02.042Z,26.50
2023-04-08T03:06:29.907Z,27.10
2023-04-08T03:08:57.785Z,42.80
2023-04-08T03:11:26.140Z,28.00
2023-04-08T03:13:54.074Z,25.50
2023-04-08T03:16:21.932Z,29.40
2023-04-08T03:18:51.461Z,45.60
2023-04-08T03:21:19.745Z,34.60
2023-04-08T03:23:47.567Z,39.70
2023-04-08T03:26:15.410Z,37.00
2023-04-08T03:28:43.254Z,36.30
2023-04-08T03:31:11.223Z,35.30
2023-04-08T03:33:39.158Z,38.90
2023-04-08T03:36:07.377Z,53.90
2023-04-08T03:38:35.354Z,67.70
2023-04-08T03:41:03.198Z,53.00
2023-04-08T03:43:31.322Z,55.70
2023-04-08T03:45:59.193Z,31.80
2023-04-08T03:48:27.976Z,32.50
2023-04-08T03:50:55.783Z,31.60
2023-04-08T03:53:23.676Z,31.90
2023-04-08T03:55:51.619Z,30.30
2023-04-08T03:58:19.475Z,29.90
2023-04-08T04:00:47.317Z,30.80
2023-04-08T04:03:15.361Z,32.50
2023-04-08T04:05:43.281Z,35.30
2023-04-08T04:08:11.090Z,35.70
2023-04-08T04:10:38.902Z,34.40
2023-04-08T04:13:06.882Z,32.40
2023-04-08T04:15:39.457Z,31.60
2023-04-08T04:18:08.151Z,32.60
2023-04-08T04:20:37.172Z,31.50
2023-04-08T04:23:05.010Z,30.00
2023-04-08T04:25:32.877Z,27.90
2023-04-08T04:28:01.812Z,27.80
2023-04-08T04:30:29.617Z,30.70
2023-04-08T04:32:57.800Z,26.20
2023-04-08T04:35:25.755Z,31.10
2023-04-08T04:37:53.771Z,28.40
2023-04-08T04:40:21.637Z,29.60
2023-04-08T04:42:49.488Z,27.90
2023-04-08T04:45:17.413Z,29.10
2023-04-08T04:47:45.526Z,32.40
2023-04-08T04:50:13.352Z,41.40
2023-04-08T04:52:41.523Z,42.70
2023-04-08T04:55:09.848Z,44.50
2023-04-08T04:57:37.723Z,33.20
2023-04-08T05:00:06.309Z,31.60
2023-04-08T05:02:34.577Z,38.20
2023-04-08T05:05:02.794Z,34.90
2023-04-08T05:07:30.834Z,31.00
2023-04-08T05:09:58.657Z,29.10
2023-04-08T05:12:27.304Z,28.60
2023-04-08T05:14:55.206Z,27.40
2023-04-08T05:17:23.105Z,30.90
2023-04-08T05:19:52.024Z,29.50
2023-04-08T05:22:19.905Z,29.10
2023-04-08T05:24:47.827Z,28.40
2023-04-08T05:27:15.686Z,31.20
2023-04-08T05:29:43.573Z,30.30
2023-04-08T05:32:11.727Z,28.90
2023-04-08T05:34:39.693Z,29.90
2023-04-08T05:37:07.521Z,28.50
2023-04-08T05:39:35.416Z,28.40
2023-04-08T05:42:03.443Z,24.60
2023-04-08T05:44:31.382Z,27.50
2023-04-08T05:47:00.520Z,29.50
2023-04-08T05:49:28.489Z,25.10
2023-04-08T05:51:56.367Z,23.60
2023-04-08T05:54:24.234Z,24.20
2023-04-08T05:56:52.133Z,26.30
2023-04-08T05:59:19.988Z,26.70
2023-04-08T06:01:47.949Z,28.00
2023-04-08T06:04:17.697Z,26.30
2023-04-08T06:06:45.841Z,26.00
2023-04-08T06:09:13.635Z,26.30
2023-04-08T06:11:41.739Z,24.60
2023-04-08T06:14:09.625Z,29.00
2023-04-08T06:16:37.569Z,24.30
2023-04-08T06:19:05.496Z,24.60
2023-04-08T06:21:33.390Z,27.00
2023-04-08T06:24:01.431Z,25.50
2023-04-08T06:26:29.245Z,26.40
2023-04-08T06:28:57.131Z,27.20
2023-04-08T06:31:24.956Z,26.10
2023-04-08T06:33:52.842Z,25.70
2023-04-08T06:36:21.068Z,24.90
2023-04-08T06:38:49.031Z,26.50
2023-04-08T06:41:17.020Z,27.50
2023-04-08T06:43:44.863Z,26.90
2023-04-08T06:46:12.669Z,30.00
2023-04-08T06:48:40.616Z,26.90
2023-04-08T06:51:08.437Z,24.30
2023-04-08T06:53:36.275Z,24.10
2023-04-08T06:56:04.389Z,23.90
2023-04-08T06:58:32.286Z,23.70
2023-04-08T07:01:01.337Z,21.40
2023-04-08T07:03:29.444Z,24.00
2023-04-08T07:05:57.707Z,23.20
2023-04-08T07:08:25.836Z,21.50
2023-04-08T07:10:54.029Z,24.20
2023-04-08T07:13:23.631Z,20.40
2023-04-08T07:15:52.059Z,24.40
2023-04-08T07:18:21.399Z,24.70
2023-04-08T07:20:56.438Z,21.50
2023-04-08T07:23:24.319Z,25.40
2023-04-08T07:25:52.530Z,21.90
2023-04-08T07:28:21.126Z,19.60
2023-04-08T07:30:49.086Z,21.80
2023-04-08T07:33:17.037Z,21.70
2023-04-08T07:35:44.974Z,20.40
2023-04-08T07:38:13.498Z,18.30
2023-04-08T07:40:41.460Z,18.30
2023-04-08T07:43:09.775Z,20.60
2023-04-08T07:45:37.685Z,23.30
2023-04-08T07:48:05.771Z,19.30
2023-04-08T07:50:35.953Z,17.70
2023-04-08T07:53:25.129Z,18.10
2023-04-08T07:55:53.070Z,18.00
2023-04-08T07:58:21.001Z,20.20
2023-04-08T08:00:48.969Z,18.40
2023-04-08T08:03:17.261Z,19.60
2023-04-08T08:05:45.413Z,17.30
2023-04-08T08:08:13.356Z,18.90
2023-04-08T08:10:41.193Z,22.00
2023-04-08T08:13:09.106Z,22.20
2023-04-08T08:15:37.201Z,18.50
2023-04-08T08:18:05.094Z,19.50
2023-04-08T08:20:33.077Z,19.70
2023-04-08T08:23:00.939Z,17.60
2023-04-08T08:25:28.797Z,17.60
2023-04-08T08:27:56.606Z,19.50
2023-04-08T08:30:26.448Z,19.10
2023-04-08T08:32:54.571Z,20.60
2023-04-08T08:35:22.438Z,21.80
2023-04-08T08:37:50.621Z,17.30
2023-04-08T08:40:18.575Z,18.10
2023-04-08T08:42:52.868Z,21.80
2023-04-08T08:45:21.261Z,19.40
2023-04-08T08:47:50.993Z,17.30
2023-04-08T08:50:19.607Z,17.80
2023-04-08T08:52:51.610Z,17.40
2023-04-08T08:55:36.260Z,17.80
2023-04-08T08:58:08.493Z,19.70
2023-04-08T09:00:42.471Z,20.60
2023-04-08T09:03:18.694Z,19.10
2023-04-08T09:06:05.456Z,17.80
2023-04-08T09:08:34.238Z,18.10
2023-04-08T09:11:21.626Z,18.40
2023-04-08T09:13:49.697Z,18.60
2023-04-08T09:16:19.969Z,17.60
2023-04-08T09:18:49.504Z,15.30
2023-04-08T09:21:18.414Z,17.90
2023-04-08T09:23:49.288Z,19.50
2023-04-08T09:26:23.947Z,18.40
2023-04-08T09:29:18.218Z,23.20
2023-04-08T09:32:00.224Z,21.40
2023-04-08T09:34:29.710Z,18.30
2023-04-08T09:36:57.603Z,16.90
2023-04-08T09:39:25.448Z,18.50
2023-04-08T09:41:57.367Z,20.80
2023-04-08T09:44:28.684Z,42.80
2023-04-08T09:47:06.746Z,23.20
2023-04-08T09:49:40.979Z,18.80
2023-04-08T09:52:16.586Z,18.60
2023-04-08T09:54:52.869Z,22.50
2023-04-08T09:57:28.703Z,19.90
2023-04-08T10:00:05.944Z,20.70
2023-04-08T10:02:56.531Z,21.60
2023-04-08T10:05:25.622Z,19.30
2023-04-08T10:07:55.807Z,19.90
2023-04-08T10:10:24.935Z,17.00
2023-04-08T10:12:53.242Z,16.10
2023-04-08T10:15:31.365Z,17.20
2023-04-08T10:18:08.221Z,16.60
2023-04-08T10:20:36.191Z,16.90
2023-04-08T10:23:05.512Z,17.10
2023-04-08T10:25:35.370Z,17.30
2023-04-08T10:28:16.252Z,17.70
2023-04-08T10:30:48.762Z,17.90
2023-04-08T10:33:40.210Z,17.80
2023-04-08T10:36:15.485Z,20.00
2023-04-08T10:38:43.454Z,23.00
2023-04-08T10:41:14.246Z,18.40
2023-04-08T10:43:42.483Z,23.40
2023-04-08T10:46:10.895Z,16.70
2023-04-08T10:48:38.782Z,17.90
2023-04-08T10:51:06.836Z,17.20
2023-04-08T10:53:36.974Z,19.50
2023-04-08T10:56:13.475Z,19.00
2023-04-08T10:58:49.604Z,16.60
2023-04-08T11:01:18.149Z,17.10
2023-04-08T11:03:46.297Z,18.60
2023-04-08T11:06:14.885Z,19.00
2023-04-08T11:08:44.695Z,16.80
2023-04-08T11:11:12.653Z,17.50
2023-04-08T11:13:51.147Z,16.90
2023-04-08T11:16:22.734Z,13.90
2023-04-08T11:18:51.800Z,16.40
2023-04-08T11:21:19.907Z,16.10
2023-04-08T11:23:51.825Z,16.60
2023-04-08T11:26:21.139Z,15.00
2023-04-08T11:28:51.515Z,16.00
2023-04-08T11:31:22.775Z,15.50
2023-04-08T11:33:58.500Z,17.60
2023-04-08T11:36:29.141Z,16.90
2023-04-08T11:38:57.227Z,17.40
2023-04-08T11:41:26.617Z,19.20
2023-04-08T11:43:56.124Z,28.10
2023-04-08T11:46:24.364Z,19.60
2023-04-08T11:49:02.545Z,33.20
2023-04-08T11:51:30.605Z,17.80
2023-04-08T11:53:58.559Z,15.70
2023-04-08T11:56:27.134Z,18.00
2023-04-08T11:58:55.321Z,17.00
2023-04-08T12:01:23.171Z,15.90
2023-04-08T12:03:59.434Z,14.00
2023-04-08T12:06:28.798Z,14.90
2023-04-08T12:08:57.137Z,15.30
2023-04-08T12:11:25.177Z,15.90
2023-04-08T12:13:53.664Z,17.30
2023-04-08T12:16:21.891Z,16.30
2023-04-08T12:18:50.298Z,13.40
2023-04-08T12:21:18.250Z,13.90
2023-04-08T12:23:46.153Z,14.20
2023-04-08T12:26:14.633Z,15.30
2023-04-08T12:28:42.645Z,12.80
2023-04-08T12:31:10.744Z,14.20
2023-04-08T12:33:38.638Z,13.30
2023-04-08T12:36:06.650Z,13.50
2023-04-08T12:38:34.630Z,12.80
2023-04-08T12:41:02.534Z,13.40
2023-04-08T12:43:32.718Z,13.20
2023-04-08T12:46:02.004Z,13.90
2023-04-08T12:48:30.074Z,13.30
2023-04-08T12:51:01.245Z,13.20
2023-04-08T12:53:29.142Z,13.70
2023-04-08T12:55:57.520Z,15.10
2023-04-08T12:58:25.842Z,14.60
2023-04-08T13:00:53.822Z,14.00
2023-04-08T13:03:21.935Z,17.40
2023-04-08T13:05:50.050Z,23.70
2023-04-08T13:08:18.062Z,17.30
2023-04-08T13:10:46.362Z,18.10
2023-04-08T13:13:14.330Z,14.30
2023-04-08T13:15:42.174Z,13.50
2023-04-08T13:18:10.309Z,15.20
2023-04-08T13:20:38.489Z,14.70
2023-04-08T13:23:06.562Z,14.50
2023-04-08T13:25:34.413Z,14.30
2023-04-08T13:28:02.372Z,16.60
2023-04-08T13:30:30.323Z,17.50
2023-04-08T13:32:58.180Z,17.70
2023-04-08T13:35:26.780Z,20.90
2023-04-08T13:37:54.630Z,17.90
2023-04-08T13:40:22.502Z,19.00
2023-04-08T13:42:50.341Z,19.00
2023-04-08T13:45:18.163Z,16.30
2023-04-08T13:47:46.153Z,16.60
2023-04-08T13:50:14.448Z,18.30
2023-04-08T13:52:42.379Z,16.60
2023-04-08T13:55:10.583Z,17.00
2023-04-08T13:57:38.466Z,19.10
2023-04-08T14:00:07.120Z,19.30
2023-04-08T14:02:37.999Z,21.10
2023-04-08T14:05:07.062Z,20.70
2023-04-08T14:07:34.938Z,19.40
2023-04-08T14:10:02.866Z,21.60
2023-04-08T14:12:30.757Z,14.90
2023-04-08T14:14:58.596Z,27.50
2023-04-08T14:17:26.430Z,17.90
2023-04-08T14:19:54.324Z,15.40
2023-04-08T14:22:22.170Z,14.80
2023-04-08T14:24:49.984Z,16.30
2023-04-08T14:27:17.869Z,17.40
2023-04-08T14:29:45.823Z,18.30
2023-04-08T14:32:13.831Z,15.60
2023-04-08T14:34:42.052Z,16.20
2023-04-08T14:37:10.002Z,16.20
2023-04-08T14:39:37.870Z,16.30
2023-04-08T14:42:06.049Z,14.30
2023-04-08T14:44:33.853Z,14.10
2023-04-08T14:47:02.111Z,14.20
2023-04-08T14:49:30.178Z,13.30
2023-04-08T14:51:58.094Z,14.60
2023-04-08T14:54:25.942Z,14.40
2023-04-08T14:56:54.110Z,14.30
2023-04-08T14:59:21.912Z,24.70
2023-04-08T15:01:49.879Z,22.00
2023-04-08T15:04:17.831Z,16.00
2023-04-08T15:06:45.877Z,15.50
2023-04-08T15:09:13.726Z,16.50
2023-04-08T15:11:41.661Z,16.00
2023-04-08T15:14:09.511Z,18.00
2023-04-08T15:16:37.337Z,21.90
2023-04-08T15:19:05.887Z,15.80
2023-04-08T15:21:33.731Z,16.80
2023-04-08T15:24:01.676Z,16.70
2023-04-08T15:26:29.644Z,17.00
2023-04-08T15:28:59.048Z,17.00
2023-04-08T15:31:27.373Z,17.20
2023-04-08T15:33:55.350Z,16.50
2023-04-08T15:36:23.190Z,16.70
2023-04-08T15:38:51.502Z,16.70
2023-04-08T15:41:21.255Z,15.90
2023-04-08T15:43:49.210Z,20.00
2023-04-08T15:46:21.313Z,19.20
2023-04-08T15:48:50.110Z,18.60
2023-04-08T15:51:18.346Z,19.50
2023-04-08T15:53:47.608Z,21.50
2023-04-08T15:56:16.584Z,20.00
2023-04-08T15:58:46.045Z,21.80
2023-04-08T16:01:14.004Z,19.90
2023-04-08T16:03:42.154Z,19.80
2023-04-08T16:06:10.293Z,20.60
2023-04-08T16:08:39.271Z,21.30
2023-04-08T16:11:08.124Z,18.30
2023-04-08T16:13:39.042Z,18.80
2023-04-08T16:16:08.762Z,18.60
2023-04-08T16:18:36.980Z,18.20
2023-04-08T16:21:05.878Z,20.00
2023-04-08T16:23:35.638Z,21.70
2023-04-08T16:26:05.711Z,20.20
2023-04-08T16:28:33.952Z,20.40
2023-04-08T16:31:02.316Z,21.20
2023-04-08T16:33:30.791Z,22.30
2023-04-08T16:36:00.085Z,20.80
2023-04-08T16:38:28.079Z,23.50
2023-04-08T16:40:59.135Z,22.20
2023-04-08T16:43:27.317Z,23.00
2023-04-08T16:45:55.199Z,25.90
2023-04-08T16:48:23.388Z,28.10
2023-04-08T16:50:51.269Z,25.30
2023-04-08T16:53:19.214Z,24.70
2023-04-08T16:55:47.231Z,21.90
2023-04-08T16:58:15.052Z,23.50
2023-04-08T17:00:42.929Z,23.20
2023-04-08T17:03:11.366Z,23.90
2023-04-08T17:05:39.431Z,25.40
2023-04-08T17:08:07.337Z,25.20
2023-04-08T17:10:35.237Z,23.20
2023-04-08T17:13:05.303Z,26.10
2023-04-08T17:15:35.666Z,24.10
2023-04-08T17:18:03.648Z,23.90
2023-04-08T17:20:32.095Z,24.30
2023-04-08T17:23:00.112Z,22.60
2023-04-08T17:25:27.957Z,31.20
2023-04-08T17:27:55.971Z,25.50
2023-04-08T17:30:23.824Z,23.30
2023-04-08T17:32:51.728Z,23.10
2023-04-08T17:35:19.702Z,24.60
2023-04-08T17:37:48.317Z,25.30
2023-04-08T17:40:16.626Z,29.00
2023-04-08T17:42:44.488Z,26.50
2023-04-08T17:45:12.392Z,28.50
2023-04-08T17:47:43.142Z,26.90
2023-04-08T17:50:11.945Z,29.90
2023-04-08T17:52:44.558Z,28.80
2023-04-08T17:55:13.876Z,32.20
2023-04-08T17:57:42.009Z,26.60
2023-04-08T18:00:10.587Z,34.60
2023-04-08T18:02:41.859Z,29.00
2023-04-08T18:05:11.509Z,30.00
2023-04-08T18:07:39.402Z,28.30
2023-04-08T18:10:08.067Z,26.30
2023-04-08T18:12:35.915Z,25.20
2023-04-08T18:15:04.568Z,25.80
2023-04-08T18:17:32.423Z,27.00
2023-04-08T18:20:00.351Z,29.20
2023-04-08T18:22:28.228Z,27.20
2023-04-08T18:24:56.244Z,26.50
2023-04-08T18:27:24.114Z,26.20
2023-04-08T18:29:53.421Z,25.90
2023-04-08T18:32:21.806Z,23.90
2023-04-08T18:34:53.169Z,25.80
2023-04-08T18:37:21.707Z,24.00
2023-04-08T18:39:50.720Z,23.10
2023-04-08T18:42:19.060Z,23.70
2023-04-08T18:44:46.983Z,24.60
2023-04-08T18:47:15.180Z,22.40
2023-04-08T18:49:43.608Z,22.80
2023-04-08T18:52:12.004Z,23.90
2023-04-08T18:54:39.813Z,25.10
2023-04-08T18:57:08.061Z,26.30
2023-04-08T18:59:35.968Z,28.40
2023-04-08T19:02:04.447Z,24.80
2023-04-08T19:04:33.449Z,27.00
2023-04-08T19:07:01.735Z,29.00
2023-04-08T19:09:30.154Z,27.00
2023-04-08T19:11:58.267Z,38.60
2023-04-08T19:14:26.499Z,50.40
2023-04-08T19:16:54.588Z,49.00
2023-04-08T19:19:22.484Z,28.50
2023-04-08T19:21:51.323Z,26.80
2023-04-08T19:24:20.918Z,24.20
2023-04-08T19:26:50.749Z,24.50
2023-04-08T19:29:19.864Z,24.20
2023-04-08T19:31:47.675Z,25.40
2023-04-08T19:34:15.715Z,25.60
2023-04-08T19:36:43.974Z,25.20
2023-04-08T19:39:11.827Z,24.50
2023-04-08T19:41:39.813Z,26.90
2023-04-08T19:44:07.645Z,27.90
2023-04-08T19:46:35.538Z,26.10
2023-04-08T19:49:04.001Z,24.10
2023-04-08T19:51:34.057Z,23.90
2023-04-08T19:54:02.046Z,25.00
2023-04-08T19:56:33.834Z,25.10
2023-04-08T19:59:01.957Z,24.30
2023-04-08T20:01:29.949Z,22.70
2023-04-08T20:03:58.046Z,26.20
2023-04-08T20:06:26.251Z,24.10
2023-04-08T20:08:54.881Z,24.70
2023-04-08T20:11:23.151Z,23.60
2023-04-08T20:13:51.355Z,22.10
2023-04-08T20:16:19.842Z,22.80
2023-04-08T20:18:47.717Z,24.00
2023-04-08T20:21:15.672Z,21.60
2023-04-08T20:23:47.321Z,22.80
2023-04-08T20:26:15.589Z,22.60
2023-04-08T20:28:44.990Z,23.40
2023-04-08T20:31:13.273Z,23.80
2023-04-08T20:33:44.273Z,24.20
2023-04-08T20:36:13.342Z,26.60
2023-04-08T20:38:42.445Z,25.20
2023-04-08T20:41:10.666Z,25.10
2023-04-08T20:43:39.465Z,26.50
2023-04-08T20:46:07.628Z,22.50
2023-04-08T20:48:36.092Z,24.20
2023-04-08T20:51:04.027Z,26.60
2023-04-08T20:53:32.097Z,29.90
2023-04-08T20:56:00.789Z,28.30
2023-04-08T20:58:28.894Z,24.50
2023-04-08T21:00:59.692Z,32.20
2023-04-08T21:03:27.930Z,36.30
2023-04-08T21:05:56.310Z,30.70
2023-04-08T21:08:24.276Z,27.40
2023-04-08T21:10:54.136Z,26.80
2023-04-08T21:13:22.290Z,33.20
2023-04-08T21:15:50.245Z,33.60
2023-04-08T21:18:18.055Z,29.10
2023-04-08T21:20:45.875Z,29.90
2023-04-08T21:23:13.847Z,40.10
2023-04-08T21:25:41.778Z,33.30
2023-04-08T21:28:09.648Z,31.50
2023-04-08T21:30:37.614Z,34.90
2023-04-08T21:33:05.521Z,35.20
2023-04-08T21:35:34.106Z,33.80
2023-04-08T21:38:02.000Z,32.70
2023-04-08T21:40:29.804Z,32.90
2023-04-08T21:42:57.752Z,36.00
2023-04-08T21:45:25.595Z,38.00
2023-04-08T21:47:53.558Z,31.60
2023-04-08T21:50:21.408Z,32.20
2023-04-08T21:52:49.273Z,43.60
2023-04-08T21:55:17.080Z,37.10
2023-04-08T21:57:44.909Z,33.40
2023-04-08T22:00:13.768Z,32.20
2023-04-08T22:02:45.271Z,39.30
2023-04-08T22:05:13.915Z,33.30
2023-04-08T22:07:41.850Z,33.40
2023-04-08T22:10:10.632Z,30.50
2023-04-08T22:12:38.459Z,30.00
2023-04-08T22:15:07.466Z,32.90
2023-04-08T22:17:35.322Z,35.00
2023-04-08T22:20:03.499Z,36.40
2023-04-08T22:22:31.440Z,34.40
2023-04-08T22:24:59.333Z,31.30
2023-04-08T22:27:29.084Z,29.30
2023-04-08T22:29:56.865Z,30.10
2023-04-08T22:32:24.704Z,30.40
2023-04-08T22:34:52.506Z,32.10
2023-04-08T22:37:20.331Z,31.40
2023-04-08T22:39:48.171Z,36.70
2023-04-08T22:42:15.960Z,32.70
2023-04-08T22:44:43.864Z,33.60
2023-04-08T22:47:11.718Z,37.40
2023-04-08T22:49:41.574Z,32.60
2023-04-08T22:52:09.410Z,35.10
2023-04-08T22:54:37.302Z,33.10
2023-04-08T22:57:05.540Z,35.70
2023-04-08T22:59:33.451Z,35.80
2023-04-08T23:02:02.048Z,34.00
2023-04-08T23:04:30.441Z,32.20
2023-04-08T23:06:58.322Z,33.30
2023-04-08T23:09:27.198Z,33.30
2023-04-08T23:11:54.992Z,33.50
2023-04-08T23:14:22.846Z,36.60
2023-04-08T23:16:50.834Z,34.20
2023-04-08T23:19:18.718Z,36.10
2023-04-08T23:21:46.576Z,34.80
2023-04-08T23:24:15.080Z,30.60
2023-04-08T23:26:42.889Z,34.20
2023-04-08T23:29:10.713Z,34.50
2023-04-08T23:31:38.603Z,34.20
2023-04-08T23:34:06.521Z,35.10
2023-04-08T23:36:34.336Z,33.10
2023-04-08T23:39:02.173Z,34.40
2023-04-08T23:41:30.017Z,35.30
2023-04-08T23:43:57.864Z,35.30
2023-04-08T23:46:25.807Z,35.10
2023-04-08T23:48:53.980Z,32.90
2023-04-08T23:51:21.951Z,35.10
2023-04-08T23:53:51.733Z,34.20
2023-04-08T23:56:19.767Z,36.20
2023-04-08T23:58:47.677Z,36.50
